Indianapolis, IN (46242)

7:17 PM EDT on August 21, 2014 (GMT -0400)
Thompson Medows | Change Station
CLOSE
Current Station
Personal Weather Station
Location: Indianapolis, IN
Elevation: 745 ft
Nearby Weather Stations

Elev 745 ft 39.69 °N, 86.26 °W | Updated 2 minutes ago

Mostly Cloudy
Mostly Cloudy
89.8 °F
Feels Like 110 °F
N
1.1
Wind Variable Wind from South

Today
High -- | Low -- °F
--% Chance of Precip.
Yesterday
High -- | Low -- °F
Precip. -- in
7:02 AM 8:32 PM
Waning Crescent, 11% visible
Pressure 29.94 in
Visibility 10.0 miles
Clouds Scattered Clouds 3000 ft
Scattered Clouds 18000 ft
Mostly Cloudy 25000 ft
Heat Index 110 °F
Dew Point 81 °F
Humidity 76%
Rainfall 0.36 in
Snow Depth Not available.
UV 1 out of 12
Pollen 9.30 out of 12
Ozone Good
PM2.5 Moderate
Flu Activity Not available.
METAR KIND 212254Z 21012KT 10SM SCT030 SCT180 BKN250 29/23 A2996 RMK AO2 SLP138 T02890228

More Conditions Fewer Conditions

Pressure 29.94 in
Visibility 10.0 miles
Clouds Scattered Clouds 3000 ft
Scattered Clouds 18000 ft
Mostly Cloudy 25000 ft
Heat Index 110 °F
Dew Point 81 °F
Humidity 76%
Rainfall 0.36 in
Snow Depth Not available.
UV 1 out of 12
Pollen 9.30 out of 12
Ozone Good
PM2.5 Moderate
Flu Activity Not available.
METAR KIND 212254Z 21012KT 10SM SCT030 SCT180 BKN250 29/23 A2996 RMK AO2 SLP138 T02890228

More Conditions Fewer Conditions

10-Day Weather Forecast

Almanac

Astronomy

Aug. 21, 2014 Rise Set
Actual Time 7:02 AM EDT 8:32 PM EDT
Civil Twilight 6:34 AM EDT 9:01 PM EDT
Nautical Twilight 6:00 AM EDT 9:35 PM EDT
Astronomical Twilight 5:24 AM EDT 10:11 PM EDT
Moon 3:32 AM EDT 6:00 PM EDT
Length of Visible Light 14h 26m
Length of Day
13h 29m
Tomorrow will be 2m 22s shorter.
Waning Crescent, 11% of the Moon is Illuminated
Today
Waning Crescent
Aug 25
New
Sep 2
First Quarter
Sep 8
Full
Sep 15
Last Quarter

Today's Extremes

State Highs State Lows

Community

WunderPhotos

Upload Photos

1,746,051 photos uploaded!

Nearby

Air Quality

  Air Quality AQ Index Pollutant
Yesterday Good
OZONE
Yesterday Good
PM10
Current Moderate
PM2.5
Current Good
OZONE
Thursday Moderate
PM2.5
Thursday Good
OZONE
Friday Moderate
PM2.5
Friday Good
OZONE

Snow Depth

Station Depth Elevation
No new snow has been reported.

Earthquake Activity

City Distance Mag. Time & Date
No recent earthquake activity has been reported nearby.
Minimum magnitude displayed is 2.5.

Coastal Water Temperatures

Place Temperature
No Stations Reporting

Nearby Weather Stations